sensor_id;sensor_type;location;lat;lon;timestamp;temperature;humidity
27858;DHT22;16852;51.446;6.528;2022-08-14T00:01:00;26.10;62.30
27858;DHT22;16852;51.446;6.528;2022-08-14T00:03:01;26.00;62.10
27858;DHT22;16852;51.446;6.528;2022-08-14T00:05:03;26.10;63.20
27858;DHT22;16852;51.446;6.528;2022-08-14T00:07:04;26.10;63.10
27858;DHT22;16852;51.446;6.528;2022-08-14T00:09:05;26.10;62.30
27858;DHT22;16852;51.446;6.528;2022-08-14T00:11:05;26.00;62.10
27858;DHT22;16852;51.446;6.528;2022-08-14T00:13:06;25.90;62.40
27858;DHT22;16852;51.446;6.528;2022-08-14T00:15:18;25.80;62.70
27858;DHT22;16852;51.446;6.528;2022-08-14T00:17:19;25.70;63.00
27858;DHT22;16852;51.446;6.528;2022-08-14T00:19:19;25.70;63.20
27858;DHT22;16852;51.446;6.528;2022-08-14T00:21:20;25.60;63.10
27858;DHT22;16852;51.446;6.528;2022-08-14T00:23:20;25.60;64.10
27858;DHT22;16852;51.446;6.528;2022-08-14T00:25:21;25.70;65.20
27858;DHT22;16852;51.446;6.528;2022-08-14T00:27:22;25.70;64.90
27858;DHT22;16852;51.446;6.528;2022-08-14T00:29:22;25.70;64.70
27858;DHT22;16852;51.446;6.528;2022-08-14T00:31:23;25.80;63.80
27858;DHT22;16852;51.446;6.528;2022-08-14T00:33:24;25.80;63.70
27858;DHT22;16852;51.446;6.528;2022-08-14T00:35:26;25.80;63.70
27858;DHT22;16852;51.446;6.528;2022-08-14T00:37:27;25.80;64.40
27858;DHT22;16852;51.446;6.528;2022-08-14T00:39:28;25.80;65.30
27858;DHT22;16852;51.446;6.528;2022-08-14T00:41:30;25.80;64.70
27858;DHT22;16852;51.446;6.528;2022-08-14T00:43:32;25.80;65.00
27858;DHT22;16852;51.446;6.528;2022-08-14T00:45:32;25.80;65.20
27858;DHT22;16852;51.446;6.528;2022-08-14T00:47:33;25.80;65.90
27858;DHT22;16852;51.446;6.528;2022-08-14T00:49:34;25.80;65.50
27858;DHT22;16852;51.446;6.528;2022-08-14T00:51:35;25.80;65.40
27858;DHT22;16852;51.446;6.528;2022-08-14T00:53:38;25.70;65.50
27858;DHT22;16852;51.446;6.528;2022-08-14T00:55:39;25.80;65.10
27858;DHT22;16852;51.446;6.528;2022-08-14T00:57:40;25.80;65.30
27858;DHT22;16852;51.446;6.528;2022-08-14T00:59:41;25.70;65.30
27858;DHT22;16852;51.446;6.528;2022-08-14T01:01:44;25.70;65.50
27858;DHT22;16852;51.446;6.528;2022-08-14T01:03:45;25.70;65.90
27858;DHT22;16852;51.446;6.528;2022-08-14T01:05:48;25.70;65.20
27858;DHT22;16852;51.446;6.528;2022-08-14T01:07:53;25.60;64.80
27858;DHT22;16852;51.446;6.528;2022-08-14T01:10:00;25.60;64.80
27858;DHT22;16852;51.446;6.528;2022-08-14T01:12:07;25.60;64.60
27858;DHT22;16852;51.446;6.528;2022-08-14T01:14:08;25.50;64.10
27858;DHT22;16852;51.446;6.528;2022-08-14T01:16:13;25.40;64.40
27858;DHT22;16852;51.446;6.528;2022-08-14T01:18:14;25.40;64.60
27858;DHT22;16852;51.446;6.528;2022-08-14T01:20:33;25.30;65.70
27858;DHT22;16852;51.446;6.528;2022-08-14T01:23:11;25.30;66.90
27858;DHT22;16852;51.446;6.528;2022-08-14T01:25:12;25.30;67.00
27858;DHT22;16852;51.446;6.528;2022-08-14T01:27:20;25.30;67.30
27858;DHT22;16852;51.446;6.528;2022-08-14T01:29:21;25.30;67.40
27858;DHT22;16852;51.446;6.528;2022-08-14T01:31:25;25.30;67.40
27858;DHT22;16852;51.446;6.528;2022-08-14T01:33:27;25.30;66.60
27858;DHT22;16852;51.446;6.528;2022-08-14T01:35:29;25.20;66.40
27858;DHT22;16852;51.446;6.528;2022-08-14T01:37:30;25.20;66.00
27858;DHT22;16852;51.446;6.528;2022-08-14T01:39:30;25.20;68.00
27858;DHT22;16852;51.446;6.528;2022-08-14T01:41:31;25.10;67.80
27858;DHT22;16852;51.446;6.528;2022-08-14T01:43:52;25.10;67.70
27858;DHT22;16852;51.446;6.528;2022-08-14T01:45:53;25.10;67.10
27858;DHT22;16852;51.446;6.528;2022-08-14T01:47:53;25.10;66.80
27858;DHT22;16852;51.446;6.528;2022-08-14T01:49:55;25.00;66.60
27858;DHT22;16852;51.446;6.528;2022-08-14T01:51:56;24.80;66.20
27858;DHT22;16852;51.446;6.528;2022-08-14T01:54:07;24.70;66.90
27858;DHT22;16852;51.446;6.528;2022-08-14T01:56:08;24.60;68.10
27858;DHT22;16852;51.446;6.528;2022-08-14T01:58:09;24.50;68.50
27858;DHT22;16852;51.446;6.528;2022-08-14T02:00:14;24.50;68.90
27858;DHT22;16852;51.446;6.528;2022-08-14T02:02:15;24.50;68.70
27858;DHT22;16852;51.446;6.528;2022-08-14T02:04:20;24.50;68.60
27858;DHT22;16852;51.446;6.528;2022-08-14T02:06:21;24.50;69.60
27858;DHT22;16852;51.446;6.528;2022-08-14T02:08:21;24.50;69.70
27858;DHT22;16852;51.446;6.528;2022-08-14T02:10:22;24.50;69.50
27858;DHT22;16852;51.446;6.528;2022-08-14T02:12:23;24.50;69.20
27858;DHT22;16852;51.446;6.528;2022-08-14T02:14:24;24.50;69.60
27858;DHT22;16852;51.446;6.528;2022-08-14T02:16:27;24.50;69.90
27858;DHT22;16852;51.446;6.528;2022-08-14T02:18:29;24.50;69.20
27858;DHT22;16852;51.446;6.528;2022-08-14T02:20:30;24.50;69.60
27858;DHT22;16852;51.446;6.528;2022-08-14T02:22:33;24.40;69.10
27858;DHT22;16852;51.446;6.528;2022-08-14T02:24:34;24.50;69.60
27858;DHT22;16852;51.446;6.528;2022-08-14T02:26:36;24.40;69.90
27858;DHT22;16852;51.446;6.528;2022-08-14T02:28:38;24.40;69.50
27858;DHT22;16852;51.446;6.528;2022-08-14T02:30:39;24.40;70.10
27858;DHT22;16852;51.446;6.528;2022-08-14T02:32:40;24.40;70.10
27858;DHT22;16852;51.446;6.528;2022-08-14T02:34:41;24.40;70.30
27858;DHT22;16852;51.446;6.528;2022-08-14T02:36:42;24.40;70.20
27858;DHT22;16852;51.446;6.528;2022-08-14T02:38:43;24.30;70.70
27858;DHT22;16852;51.446;6.528;2022-08-14T02:40:44;24.30;71.00
27858;DHT22;16852;51.446;6.528;2022-08-14T02:42:45;24.30;70.00
27858;DHT22;16852;51.446;6.528;2022-08-14T02:44:47;24.30;71.00
27858;DHT22;16852;51.446;6.528;2022-08-14T02:46:51;24.30;70.10
27858;DHT22;16852;51.446;6.528;2022-08-14T02:48:53;24.30;71.40
27858;DHT22;16852;51.446;6.528;2022-08-14T02:50:53;24.30;71.50
27858;DHT22;16852;51.446;6.528;2022-08-14T02:52:54;24.20;69.80
27858;DHT22;16852;51.446;6.528;2022-08-14T02:54:55;24.20;70.20
27858;DHT22;16852;51.446;6.528;2022-08-14T02:56:57;24.20;70.40
27858;DHT22;16852;51.446;6.528;2022-08-14T02:58:59;24.10;70.80
27858;DHT22;16852;51.446;6.528;2022-08-14T03:01:01;24.10;71.20
27858;DHT22;16852;51.446;6.528;2022-08-14T03:03:01;24.10;72.10
27858;DHT22;16852;51.446;6.528;2022-08-14T03:05:04;24.10;71.30
27858;DHT22;16852;51.446;6.528;2022-08-14T03:07:05;24.00;71.60
27858;DHT22;16852;51.446;6.528;2022-08-14T03:09:06;24.00;71.70
27858;DHT22;16852;51.446;6.528;2022-08-14T03:11:10;24.00;72.50
27858;DHT22;16852;51.446;6.528;2022-08-14T03:13:11;24.00;72.90
27858;DHT22;16852;51.446;6.528;2022-08-14T03:15:11;23.90;71.50
27858;DHT22;16852;51.446;6.528;2022-08-14T03:17:13;23.90;71.80
27858;DHT22;16852;51.446;6.528;2022-08-14T03:19:15;23.90;72.20
27858;DHT22;16852;51.446;6.528;2022-08-14T03:21:18;23.80;71.30
27858;DHT22;16852;51.446;6.528;2022-08-14T03:23:19;23.80;70.70
27858;DHT22;16852;51.446;6.528;2022-08-14T03:25:20;23.80;71.00
27858;DHT22;16852;51.446;6.528;2022-08-14T03:27:22;23.70;71.80
27858;DHT22;16852;51.446;6.528;2022-08-14T03:29:23;23.60;72.80
27858;DHT22;16852;51.446;6.528;2022-08-14T03:31:24;23.40;73.50
27858;DHT22;16852;51.446;6.528;2022-08-14T03:33:24;23.30;74.10
27858;DHT22;16852;51.446;6.528;2022-08-14T03:35:27;23.20;74.70
27858;DHT22;16852;51.446;6.528;2022-08-14T03:37:29;23.10;75.00
27858;DHT22;16852;51.446;6.528;2022-08-14T03:39:30;23.00;75.50
27858;DHT22;16852;51.446;6.528;2022-08-14T03:41:31;23.00;75.40
27858;DHT22;16852;51.446;6.528;2022-08-14T03:43:32;23.00;75.60
27858;DHT22;16852;51.446;6.528;2022-08-14T03:45:38;22.90;75.70
27858;DHT22;16852;51.446;6.528;2022-08-14T03:47:39;22.90;76.30
27858;DHT22;16852;51.446;6.528;2022-08-14T03:49:40;22.90;76.60
27858;DHT22;16852;51.446;6.528;2022-08-14T03:51:43;22.90;78.10
27858;DHT22;16852;51.446;6.528;2022-08-14T03:53:45;22.80;76.90
27858;DHT22;16852;51.446;6.528;2022-08-14T03:55:46;22.70;77.60
27858;DHT22;16852;51.446;6.528;2022-08-14T03:57:47;22.20;79.20
27858;DHT22;16852;51.446;6.528;2022-08-14T03:59:47;21.80;80.30
27858;DHT22;16852;51.446;6.528;2022-08-14T04:01:48;21.60;81.60
27858;DHT22;16852;51.446;6.528;2022-08-14T04:03:53;21.40;81.80
27858;DHT22;16852;51.446;6.528;2022-08-14T04:05:54;21.40;82.20
27858;DHT22;16852;51.446;6.528;2022-08-14T04:07:55;21.30;82.70
27858;DHT22;16852;51.446;6.528;2022-08-14T04:09:55;21.30;82.90
27858;DHT22;16852;51.446;6.528;2022-08-14T04:11:56;21.40;82.90
27858;DHT22;16852;51.446;6.528;2022-08-14T04:13:56;21.40;83.20
27858;DHT22;16852;51.446;6.528;2022-08-14T04:15:57;21.50;82.50
27858;DHT22;16852;51.446;6.528;2022-08-14T04:18:05;21.60;82.10
27858;DHT22;16852;51.446;6.528;2022-08-14T04:20:09;21.60;81.60
27858;DHT22;16852;51.446;6.528;2022-08-14T04:22:12;21.60;81.70
27858;DHT22;16852;51.446;6.528;2022-08-14T04:24:12;21.60;82.00
27858;DHT22;16852;51.446;6.528;2022-08-14T04:26:14;21.50;82.10
27858;DHT22;16852;51.446;6.528;2022-08-14T04:28:15;21.60;82.40
27858;DHT22;16852;51.446;6.528;2022-08-14T04:30:16;21.60;82.90
27858;DHT22;16852;51.446;6.528;2022-08-14T04:32:17;21.70;82.60
27858;DHT22;16852;51.446;6.528;2022-08-14T04:34:18;21.70;82.20
27858;DHT22;16852;51.446;6.528;2022-08-14T04:36:19;21.80;81.60
27858;DHT22;16852;51.446;6.528;2022-08-14T04:38:20;21.90;81.30
27858;DHT22;16852;51.446;6.528;2022-08-14T04:40:40;21.90;81.60
27858;DHT22;16852;51.446;6.528;2022-08-14T04:42:59;21.90;81.80
27858;DHT22;16852;51.446;6.528;2022-08-14T04:45:20;21.90;81.70
27858;DHT22;16852;51.446;6.528;2022-08-14T04:47:22;21.90;81.90
27858;DHT22;16852;51.446;6.528;2022-08-14T04:49:41;22.00;81.90
27858;DHT22;16852;51.446;6.528;2022-08-14T04:51:42;22.00;81.80
27858;DHT22;16852;51.446;6.528;2022-08-14T04:53:46;22.00;82.10
27858;DHT22;16852;51.446;6.528;2022-08-14T04:55:48;22.10;81.80
27858;DHT22;16852;51.446;6.528;2022-08-14T04:57:49;22.10;81.70
27858;DHT22;16852;51.446;6.528;2022-08-14T04:59:49;22.20;81.80
27858;DHT22;16852;51.446;6.528;2022-08-14T05:01:52;22.20;82.20
27858;DHT22;16852;51.446;6.528;2022-08-14T05:03:53;22.20;82.20
27858;DHT22;16852;51.446;6.528;2022-08-14T05:05:57;22.30;81.40
27858;DHT22;16852;51.446;6.528;2022-08-14T05:08:09;22.30;80.50
27858;DHT22;16852;51.446;6.528;2022-08-14T05:10:11;22.40;80.10
27858;DHT22;16852;51.446;6.528;2022-08-14T05:12:12;22.30;80.30
27858;DHT22;16852;51.446;6.528;2022-08-14T05:14:12;22.40;80.80
27858;DHT22;16852;51.446;6.528;2022-08-14T05:16:13;22.30;81.80
27858;DHT22;16852;51.446;6.528;2022-08-14T05:18:19;22.40;81.20
27858;DHT22;16852;51.446;6.528;2022-08-14T05:20:20;22.30;81.60
27858;DHT22;16852;51.446;6.528;2022-08-14T05:22:20;22.30;82.90
27858;DHT22;16852;51.446;6.528;2022-08-14T05:24:21;22.20;82.70
27858;DHT22;16852;51.446;6.528;2022-08-14T05:26:21;22.20;83.10
27858;DHT22;16852;51.446;6.528;2022-08-14T05:28:24;22.20;83.70
27858;DHT22;16852;51.446;6.528;2022-08-14T05:30:26;22.20;84.00
27858;DHT22;16852;51.446;6.528;2022-08-14T05:32:26;22.20;84.10
27858;DHT22;16852;51.446;6.528;2022-08-14T05:34:27;22.30;84.20
27858;DHT22;16852;51.446;6.528;2022-08-14T05:36:29;22.30;84.70
27858;DHT22;16852;51.446;6.528;2022-08-14T05:38:35;22.40;84.60
27858;DHT22;16852;51.446;6.528;2022-08-14T05:40:36;22.40;84.80
27858;DHT22;16852;51.446;6.528;2022-08-14T05:42:36;22.40;85.50
27858;DHT22;16852;51.446;6.528;2022-08-14T05:44:37;22.40;85.30
27858;DHT22;16852;51.446;6.528;2022-08-14T05:46:38;22.50;85.20
27858;DHT22;16852;51.446;6.528;2022-08-14T05:48:38;22.50;85.80
27858;DHT22;16852;51.446;6.528;2022-08-14T05:50:39;22.60;85.00
27858;DHT22;16852;51.446;6.528;2022-08-14T05:52:40;22.70;85.50
27858;DHT22;16852;51.446;6.528;2022-08-14T05:54:41;22.80;84.80
27858;DHT22;16852;51.446;6.528;2022-08-14T05:56:41;22.90;86.50
27858;DHT22;16852;51.446;6.528;2022-08-14T05:58:44;22.90;85.60
27858;DHT22;16852;51.446;6.528;2022-08-14T06:00:45;23.00;84.60
27858;DHT22;16852;51.446;6.528;2022-08-14T06:02:46;23.00;85.50
27858;DHT22;16852;51.446;6.528;2022-08-14T06:04:46;23.10;84.40
27858;DHT22;16852;51.446;6.528;2022-08-14T06:06:47;23.10;85.30
27858;DHT22;16852;51.446;6.528;2022-08-14T06:08:48;23.20;84.30
27858;DHT22;16852;51.446;6.528;2022-08-14T06:10:50;23.20;83.90
27858;DHT22;16852;51.446;6.528;2022-08-14T06:12:51;23.30;84.00
27858;DHT22;16852;51.446;6.528;2022-08-14T06:14:51;23.30;83.60
27858;DHT22;16852;51.446;6.528;2022-08-14T06:16:52;23.40;83.70
27858;DHT22;16852;51.446;6.528;2022-08-14T06:18:53;23.40;83.90
27858;DHT22;16852;51.446;6.528;2022-08-14T06:20:55;23.40;83.90
27858;DHT22;16852;51.446;6.528;2022-08-14T06:22:56;23.50;83.80
27858;DHT22;16852;51.446;6.528;2022-08-14T06:24:57;23.60;83.70
27858;DHT22;16852;51.446;6.528;2022-08-14T06:26:57;23.70;83.80
27858;DHT22;16852;51.446;6.528;2022-08-14T06:28:58;23.70;83.80
27858;DHT22;16852;51.446;6.528;2022-08-14T06:30:59;23.80;83.40
27858;DHT22;16852;51.446;6.528;2022-08-14T06:32:59;23.90;83.60
27858;DHT22;16852;51.446;6.528;2022-08-14T06:35:01;23.90;83.50
27858;DHT22;16852;51.446;6.528;2022-08-14T06:37:04;24.00;84.10
27858;DHT22;16852;51.446;6.528;2022-08-14T06:39:05;24.20;83.50
27858;DHT22;16852;51.446;6.528;2022-08-14T06:41:06;24.30;83.70
27858;DHT22;16852;51.446;6.528;2022-08-14T06:43:09;24.60;83.20
27858;DHT22;16852;51.446;6.528;2022-08-14T06:45:13;25.00;82.30
27858;DHT22;16852;51.446;6.528;2022-08-14T06:47:14;25.30;80.30
27858;DHT22;16852;51.446;6.528;2022-08-14T06:49:14;25.70;78.10
27858;DHT22;16852;51.446;6.528;2022-08-14T06:51:15;26.00;76.70
27858;DHT22;16852;51.446;6.528;2022-08-14T06:53:16;26.40;76.20
27858;DHT22;16852;51.446;6.528;2022-08-14T06:55:19;26.90;75.50
27858;DHT22;16852;51.446;6.528;2022-08-14T06:57:20;27.20;75.20
27858;DHT22;16852;51.446;6.528;2022-08-14T06:59:21;27.60;73.70
27858;DHT22;16852;51.446;6.528;2022-08-14T07:01:21;27.90;71.40
27858;DHT22;16852;51.446;6.528;2022-08-14T07:03:41;28.20;71.30
27858;DHT22;16852;51.446;6.528;2022-08-14T07:06:00;28.70;71.10
27858;DHT22;16852;51.446;6.528;2022-08-14T07:08:01;29.00;69.20
27858;DHT22;16852;51.446;6.528;2022-08-14T07:10:04;29.20;67.40
27858;DHT22;16852;51.446;6.528;2022-08-14T07:12:05;29.40;68.20
27858;DHT22;16852;51.446;6.528;2022-08-14T07:14:05;29.40;66.40
27858;DHT22;16852;51.446;6.528;2022-08-14T07:16:06;29.50;66.30
27858;DHT22;16852;51.446;6.528;2022-08-14T07:18:08;29.30;65.80
27858;DHT22;16852;51.446;6.528;2022-08-14T07:20:09;29.40;66.60
27858;DHT22;16852;51.446;6.528;2022-08-14T07:22:10;29.50;67.40
27858;DHT22;16852;51.446;6.528;2022-08-14T07:24:10;29.60;66.60
27858;DHT22;16852;51.446;6.528;2022-08-14T07:26:11;29.60;66.50
27858;DHT22;16852;51.446;6.528;2022-08-14T07:28:17;29.50;66.30
27858;DHT22;16852;51.446;6.528;2022-08-14T07:30:17;29.60;67.20
27858;DHT22;16852;51.446;6.528;2022-08-14T07:32:18;29.50;68.10
27858;DHT22;16852;51.446;6.528;2022-08-14T07:34:19;29.60;66.00
27858;DHT22;16852;51.446;6.528;2022-08-14T07:36:20;29.60;66.30
27858;DHT22;16852;51.446;6.528;2022-08-14T07:38:22;29.70;66.20
27858;DHT22;16852;51.446;6.528;2022-08-14T07:40:23;29.70;65.80
27858;DHT22;16852;51.446;6.528;2022-08-14T07:42:24;29.70;65.50
27858;DHT22;16852;51.446;6.528;2022-08-14T07:44:25;29.50;65.40
27858;DHT22;16852;51.446;6.528;2022-08-14T07:46:25;29.50;65.50
27858;DHT22;16852;51.446;6.528;2022-08-14T07:48:26;29.60;66.50
27858;DHT22;16852;51.446;6.528;2022-08-14T07:50:26;29.70;65.90
27858;DHT22;16852;51.446;6.528;2022-08-14T07:52:28;29.70;65.70
27858;DHT22;16852;51.446;6.528;2022-08-14T07:54:28;29.70;65.40
27858;DHT22;16852;51.446;6.528;2022-08-14T07:56:30;29.80;67.10
27858;DHT22;16852;51.446;6.528;2022-08-14T07:58:31;29.80;66.40
27858;DHT22;16852;51.446;6.528;2022-08-14T08:00:32;29.80;65.10
27858;DHT22;16852;51.446;6.528;2022-08-14T08:02:33;29.80;65.80
27858;DHT22;16852;51.446;6.528;2022-08-14T08:04:35;29.90;66.20
27858;DHT22;16852;51.446;6.528;2022-08-14T08:06:37;29.90;65.40
27858;DHT22;16852;51.446;6.528;2022-08-14T08:08:37;29.80;65.50
27858;DHT22;16852;51.446;6.528;2022-08-14T08:10:38;29.90;66.40
27858;DHT22;16852;51.446;6.528;2022-08-14T08:12:41;30.00;65.60
27858;DHT22;16852;51.446;6.528;2022-08-14T08:14:42;30.00;65.30
27858;DHT22;16852;51.446;6.528;2022-08-14T08:16:47;30.00;64.80
27858;DHT22;16852;51.446;6.528;2022-08-14T08:18:48;30.00;64.70
27858;DHT22;16852;51.446;6.528;2022-08-14T08:20:51;30.10;66.20
27858;DHT22;16852;51.446;6.528;2022-08-14T08:22:54;29.90;65.00
27858;DHT22;16852;51.446;6.528;2022-08-14T08:24:56;30.00;65.60
27858;DHT22;16852;51.446;6.528;2022-08-14T08:26:56;30.00;64.60
27858;DHT22;16852;51.446;6.528;2022-08-14T08:28:57;30.20;64.40
27858;DHT22;16852;51.446;6.528;2022-08-14T08:31:03;30.20;64.80
27858;DHT22;16852;51.446;6.528;2022-08-14T08:33:07;30.30;64.40
27858;DHT22;16852;51.446;6.528;2022-08-14T08:35:16;30.30;64.00
27858;DHT22;16852;51.446;6.528;2022-08-14T08:37:17;30.40;64.10
27858;DHT22;16852;51.446;6.528;2022-08-14T08:39:18;30.40;64.20
27858;DHT22;16852;51.446;6.528;2022-08-14T08:41:18;30.50;63.80
27858;DHT22;16852;51.446;6.528;2022-08-14T08:43:27;30.60;63.00
27858;DHT22;16852;51.446;6.528;2022-08-14T08:45:28;30.60;63.20
27858;DHT22;16852;51.446;6.528;2022-08-14T08:47:47;30.70;63.60
27858;DHT22;16852;51.446;6.528;2022-08-14T08:49:48;30.70;63.80
27858;DHT22;16852;51.446;6.528;2022-08-14T08:51:49;30.80;63.70
27858;DHT22;16852;51.446;6.528;2022-08-14T08:54:11;30.80;63.30
27858;DHT22;16852;51.446;6.528;2022-08-14T08:56:12;30.80;64.70
27858;DHT22;16852;51.446;6.528;2022-08-14T08:58:17;30.80;64.10
27858;DHT22;16852;51.446;6.528;2022-08-14T09:00:18;30.70;63.50
27858;DHT22;16852;51.446;6.528;2022-08-14T09:02:19;30.90;63.00
27858;DHT22;16852;51.446;6.528;2022-08-14T09:04:20;30.90;62.70
27858;DHT22;16852;51.446;6.528;2022-08-14T09:06:20;31.00;63.30
27858;DHT22;16852;51.446;6.528;2022-08-14T09:08:30;30.90;62.70
27858;DHT22;16852;51.446;6.528;2022-08-14T09:10:30;31.00;62.90
27858;DHT22;16852;51.446;6.528;2022-08-14T09:12:31;31.00;64.00
27858;DHT22;16852;51.446;6.528;2022-08-14T09:14:34;31.10;63.20
27858;DHT22;16852;51.446;6.528;2022-08-14T09:16:35;31.10;62.60
27858;DHT22;16852;51.446;6.528;2022-08-14T09:18:38;30.90;62.80
27858;DHT22;16852;51.446;6.528;2022-08-14T09:20:42;31.00;63.10
27858;DHT22;16852;51.446;6.528;2022-08-14T09:22:43;31.10;62.40
27858;DHT22;16852;51.446;6.528;2022-08-14T09:24:45;31.10;61.50
27858;DHT22;16852;51.446;6.528;2022-08-14T09:26:46;31.20;62.10
27858;DHT22;16852;51.446;6.528;2022-08-14T09:28:47;31.30;61.90
27858;DHT22;16852;51.446;6.528;2022-08-14T09:30:51;31.30;62.00
27858;DHT22;16852;51.446;6.528;2022-08-14T09:33:06;31.40;62.70
27858;DHT22;16852;51.446;6.528;2022-08-14T09:35:22;31.30;59.80
27858;DHT22;16852;51.446;6.528;2022-08-14T09:37:36;31.30;59.80
27858;DHT22;16852;51.446;6.528;2022-08-14T09:39:51;31.20;60.00
27858;DHT22;16852;51.446;6.528;2022-08-14T09:42:02;31.20;59.40
27858;DHT22;16852;51.446;6.528;2022-08-14T09:44:08;31.30;60.00
27858;DHT22;16852;51.446;6.528;2022-08-14T09:46:14;31.30;59.20
27858;DHT22;16852;51.446;6.528;2022-08-14T09:48:18;31.20;59.80
27858;DHT22;16852;51.446;6.528;2022-08-14T09:50:30;31.20;58.90
27858;DHT22;16852;51.446;6.528;2022-08-14T09:52:32;31.20;59.80
27858;DHT22;16852;51.446;6.528;2022-08-14T09:54:43;31.10;59.50
27858;DHT22;16852;51.446;6.528;2022-08-14T09:56:46;31.10;59.90
27858;DHT22;16852;51.446;6.528;2022-08-14T09:58:47;31.20;60.10
27858;DHT22;16852;51.446;6.528;2022-08-14T10:00:50;31.30;62.30
27858;DHT22;16852;51.446;6.528;2022-08-14T10:02:55;31.40;59.40
27858;DHT22;16852;51.446;6.528;2022-08-14T10:05:09;31.40;60.00
27858;DHT22;16852;51.446;6.528;2022-08-14T10:07:09;31.40;60.00
27858;DHT22;16852;51.446;6.528;2022-08-14T10:09:10;31.40;58.20
27858;DHT22;16852;51.446;6.528;2022-08-14T10:11:22;31.60;58.40
27858;DHT22;16852;51.446;6.528;2022-08-14T10:13:24;31.30;57.00
27858;DHT22;16852;51.446;6.528;2022-08-14T10:15:27;31.50;58.10
27858;DHT22;16852;51.446;6.528;2022-08-14T10:17:27;31.50;57.40
27858;DHT22;16852;51.446;6.528;2022-08-14T10:19:28;31.60;57.10
27858;DHT22;16852;51.446;6.528;2022-08-14T10:21:29;31.60;56.60
27858;DHT22;16852;51.446;6.528;2022-08-14T10:23:44;31.60;54.80
27858;DHT22;16852;51.446;6.528;2022-08-14T10:25:52;31.60;54.40
27858;DHT22;16852;51.446;6.528;2022-08-14T10:27:56;31.70;55.10
27858;DHT22;16852;51.446;6.528;2022-08-14T10:29:58;31.70;54.90
27858;DHT22;16852;51.446;6.528;2022-08-14T10:32:00;31.80;54.80
27858;DHT22;16852;51.446;6.528;2022-08-14T10:34:06;31.80;54.80
27858;DHT22;16852;51.446;6.528;2022-08-14T10:36:07;31.90;54.60
27858;DHT22;16852;51.446;6.528;2022-08-14T10:38:08;31.90;54.50
27858;DHT22;16852;51.446;6.528;2022-08-14T10:40:10;31.90;54.80
27858;DHT22;16852;51.446;6.528;2022-08-14T10:42:13;32.00;53.50
27858;DHT22;16852;51.446;6.528;2022-08-14T10:44:16;32.00;53.90
27858;DHT22;16852;51.446;6.528;2022-08-14T10:46:18;32.10;53.60
27858;DHT22;16852;51.446;6.528;2022-08-14T10:48:19;32.10;56.00
27858;DHT22;16852;51.446;6.528;2022-08-14T10:50:34;32.10;53.30
27858;DHT22;16852;51.446;6.528;2022-08-14T10:52:34;32.10;53.80
27858;DHT22;16852;51.446;6.528;2022-08-14T10:54:43;32.10;53.50
27858;DHT22;16852;51.446;6.528;2022-08-14T10:56:44;32.20;53.70
27858;DHT22;16852;51.446;6.528;2022-08-14T10:58:44;32.20;53.90
27858;DHT22;16852;51.446;6.528;2022-08-14T11:00:54;32.20;54.20
27858;DHT22;16852;51.446;6.528;2022-08-14T11:03:04;32.30;54.50
27858;DHT22;16852;51.446;6.528;2022-08-14T11:05:15;32.40;55.30
27858;DHT22;16852;51.446;6.528;2022-08-14T11:07:17;32.40;55.40
27858;DHT22;16852;51.446;6.528;2022-08-14T11:09:18;32.40;53.80
27858;DHT22;16852;51.446;6.528;2022-08-14T11:11:19;32.30;53.60
27858;DHT22;16852;51.446;6.528;2022-08-14T11:13:25;32.40;54.10
27858;DHT22;16852;51.446;6.528;2022-08-14T11:15:27;32.40;54.80
27858;DHT22;16852;51.446;6.528;2022-08-14T11:17:30;32.50;54.60
27858;DHT22;16852;51.446;6.528;2022-08-14T11:19:31;32.60;53.60
27858;DHT22;16852;51.446;6.528;2022-08-14T11:21:34;32.60;53.70
27858;DHT22;16852;51.446;6.528;2022-08-14T11:23:39;32.70;53.90
27858;DHT22;16852;51.446;6.528;2022-08-14T11:25:43;32.70;53.50
27858;DHT22;16852;51.446;6.528;2022-08-14T11:27:46;32.70;53.50
27858;DHT22;16852;51.446;6.528;2022-08-14T11:29:47;32.50;52.90
27858;DHT22;16852;51.446;6.528;2022-08-14T11:31:51;32.50;52.90
27858;DHT22;16852;51.446;6.528;2022-08-14T11:33:53;32.40;52.90
27858;DHT22;16852;51.446;6.528;2022-08-14T11:35:57;32.30;53.70
27858;DHT22;16852;51.446;6.528;2022-08-14T11:38:02;32.50;53.50
27858;DHT22;16852;51.446;6.528;2022-08-14T11:40:03;32.60;53.90
27858;DHT22;16852;51.446;6.528;2022-08-14T11:42:05;32.50;54.30
27858;DHT22;16852;51.446;6.528;2022-08-14T11:44:06;32.60;54.10
27858;DHT22;16852;51.446;6.528;2022-08-14T11:46:07;32.70;54.60
27858;DHT22;16852;51.446;6.528;2022-08-14T11:48:18;32.80;54.20
27858;DHT22;16852;51.446;6.528;2022-08-14T11:50:22;32.90;53.70
27858;DHT22;16852;51.446;6.528;2022-08-14T11:52:33;32.80;53.10
27858;DHT22;16852;51.446;6.528;2022-08-14T11:54:34;32.50;52.00
27858;DHT22;16852;51.446;6.528;2022-08-14T11:56:38;32.50;52.70
27858;DHT22;16852;51.446;6.528;2022-08-14T11:58:40;32.30;52.80
27858;DHT22;16852;51.446;6.528;2022-08-14T12:00:55;32.30;53.10
27858;DHT22;16852;51.446;6.528;2022-08-14T12:03:03;32.20;53.60
27858;DHT22;16852;51.446;6.528;2022-08-14T12:05:04;32.20;54.30
27858;DHT22;16852;51.446;6.528;2022-08-14T12:07:06;32.30;53.90
27858;DHT22;16852;51.446;6.528;2022-08-14T12:09:06;32.30;54.10
27858;DHT22;16852;51.446;6.528;2022-08-14T12:11:10;32.20;54.50
27858;DHT22;16852;51.446;6.528;2022-08-14T12:13:18;32.20;53.30
27858;DHT22;16852;51.446;6.528;2022-08-14T12:15:48;32.20;53.80
27858;DHT22;16852;51.446;6.528;2022-08-14T12:17:56;32.30;54.00
27858;DHT22;16852;51.446;6.528;2022-08-14T12:20:00;32.30;54.60
27858;DHT22;16852;51.446;6.528;2022-08-14T12:22:01;32.40;53.50
27858;DHT22;16852;51.446;6.528;2022-08-14T12:24:04;32.30;53.60
27858;DHT22;16852;51.446;6.528;2022-08-14T12:26:13;32.30;54.00
27858;DHT22;16852;51.446;6.528;2022-08-14T12:28:15;32.40;54.50
27858;DHT22;16852;51.446;6.528;2022-08-14T12:30:39;32.40;53.40
27858;DHT22;16852;51.446;6.528;2022-08-14T12:32:42;32.40;54.00
27858;DHT22;16852;51.446;6.528;2022-08-14T12:34:42;32.30;53.10
27858;DHT22;16852;51.446;6.528;2022-08-14T12:37:01;32.30;53.80
27858;DHT22;16852;51.446;6.528;2022-08-14T12:39:20;32.40;54.90
27858;DHT22;16852;51.446;6.528;2022-08-14T12:41:25;32.50;53.80
27858;DHT22;16852;51.446;6.528;2022-08-14T12:43:26;32.50;53.60
27858;DHT22;16852;51.446;6.528;2022-08-14T12:45:32;32.40;53.00
27858;DHT22;16852;51.446;6.528;2022-08-14T12:47:33;32.50;53.20
27858;DHT22;16852;51.446;6.528;2022-08-14T12:49:33;32.50;53.10
27858;DHT22;16852;51.446;6.528;2022-08-14T12:51:34;32.50;53.40
27858;DHT22;16852;51.446;6.528;2022-08-14T12:53:35;32.60;53.30
27858;DHT22;16852;51.446;6.528;2022-08-14T12:55:38;32.60;53.40
27858;DHT22;16852;51.446;6.528;2022-08-14T12:57:41;32.70;52.80